sensor_id;sensor_type;location;lat;lon;timestamp;P1;durP1;ratioP1;P2;durP2;ratioP2
32964;SDS011;19317;48.226;11.686;2024-03-08T00:03:48;14.10;;;11.10;;
32964;SDS011;19317;48.226;11.686;2024-03-08T00:08:39;14.07;;;10.77;;
32964;SDS011;19317;48.226;11.686;2024-03-08T00:13:30;15.27;;;11.30;;
32964;SDS011;19317;48.226;11.686;2024-03-08T00:18:20;13.37;;;11.07;;
32964;SDS011;19317;48.226;11.686;2024-03-08T00:23:11;13.77;;;11.27;;
32964;SDS011;19317;48.226;11.686;2024-03-08T00:28:02;12.47;;;10.50;;
32964;SDS011;19317;48.226;11.686;2024-03-08T00:32:53;15.83;;;10.90;;
32964;SDS011;19317;48.226;11.686;2024-03-08T00:37:44;15.57;;;11.13;;
32964;SDS011;19317;48.226;11.686;2024-03-08T00:42:35;14.07;;;11.00;;
32964;SDS011;19317;48.226;11.686;2024-03-08T00:47:26;14.57;;;10.70;;
32964;SDS011;19317;48.226;11.686;2024-03-08T00:52:17;13.20;;;10.27;;
32964;SDS011;19317;48.226;11.686;2024-03-08T00:57:08;15.40;;;10.83;;
32964;SDS011;19317;48.226;11.686;2024-03-08T01:01:59;15.50;;;11.47;;
32964;SDS011;19317;48.226;11.686;2024-03-08T01:06:50;14.43;;;11.07;;
32964;SDS011;19317;48.226;11.686;2024-03-08T01:11:41;12.70;;;10.47;;
32964;SDS011;19317;48.226;11.686;2024-03-08T01:16:32;14.70;;;11.10;;
32964;SDS011;19317;48.226;11.686;2024-03-08T01:21:23;13.53;;;11.03;;
32964;SDS011;19317;48.226;11.686;2024-03-08T01:26:13;14.53;;;11.13;;
32964;SDS011;19317;48.226;11.686;2024-03-08T01:31:04;12.90;;;10.40;;
32964;SDS011;19317;48.226;11.686;2024-03-08T01:35:55;14.53;;;11.50;;
32964;SDS011;19317;48.226;11.686;2024-03-08T01:40:46;12.83;;;10.83;;
32964;SDS011;19317;48.226;11.686;2024-03-08T01:45:37;16.03;;;11.83;;
32964;SDS011;19317;48.226;11.686;2024-03-08T01:50:28;13.77;;;11.10;;
32964;SDS011;19317;48.226;11.686;2024-03-08T01:55:19;14.23;;;11.60;;
32964;SDS011;19317;48.226;11.686;2024-03-08T02:00:10;16.07;;;11.70;;
32964;SDS011;19317;48.226;11.686;2024-03-08T02:05:01;16.90;;;11.73;;
32964;SDS011;19317;48.226;11.686;2024-03-08T02:09:52;15.67;;;12.83;;
32964;SDS011;19317;48.226;11.686;2024-03-08T02:14:43;18.07;;;13.03;;
32964;SDS011;19317;48.226;11.686;2024-03-08T02:19:34;15.57;;;12.27;;
32964;SDS011;19317;48.226;11.686;2024-03-08T02:24:25;15.53;;;11.30;;
32964;SDS011;19317;48.226;11.686;2024-03-08T02:29:16;15.90;;;11.80;;
32964;SDS011;19317;48.226;11.686;2024-03-08T02:34:07;17.13;;;12.23;;
32964;SDS011;19317;48.226;11.686;2024-03-08T02:38:58;15.73;;;12.60;;
32964;SDS011;19317;48.226;11.686;2024-03-08T02:43:49;16.70;;;12.57;;
32964;SDS011;19317;48.226;11.686;2024-03-08T02:48:39;18.27;;;11.90;;
32964;SDS011;19317;48.226;11.686;2024-03-08T02:53:30;17.63;;;12.57;;
32964;SDS011;19317;48.226;11.686;2024-03-08T02:58:21;17.40;;;12.80;;
32964;SDS011;19317;48.226;11.686;2024-03-08T03:03:12;17.63;;;11.80;;
32964;SDS011;19317;48.226;11.686;2024-03-08T03:08:03;16.40;;;12.43;;
32964;SDS011;19317;48.226;11.686;2024-03-08T03:12:54;14.70;;;11.60;;
32964;SDS011;19317;48.226;11.686;2024-03-08T03:17:46;16.83;;;12.30;;
32964;SDS011;19317;48.226;11.686;2024-03-08T03:22:37;15.03;;;12.53;;
32964;SDS011;19317;48.226;11.686;2024-03-08T03:27:28;14.77;;;11.60;;
32964;SDS011;19317;48.226;11.686;2024-03-08T03:32:19;16.10;;;11.93;;
32964;SDS011;19317;48.226;11.686;2024-03-08T03:37:10;16.97;;;12.27;;
32964;SDS011;19317;48.226;11.686;2024-03-08T03:42:01;15.10;;;12.50;;
32964;SDS011;19317;48.226;11.686;2024-03-08T03:46:52;17.63;;;12.90;;
32964;SDS011;19317;48.226;11.686;2024-03-08T03:51:42;16.73;;;12.20;;
32964;SDS011;19317;48.226;11.686;2024-03-08T03:56:33;17.97;;;13.07;;
32964;SDS011;19317;48.226;11.686;2024-03-08T04:01:24;17.23;;;13.80;;
32964;SDS011;19317;48.226;11.686;2024-03-08T04:06:15;19.20;;;13.67;;
32964;SDS011;19317;48.226;11.686;2024-03-08T04:11:07;20.27;;;14.27;;
32964;SDS011;19317;48.226;11.686;2024-03-08T04:15:58;19.33;;;13.97;;
32964;SDS011;19317;48.226;11.686;2024-03-08T04:20:48;18.53;;;13.67;;
32964;SDS011;19317;48.226;11.686;2024-03-08T04:25:39;20.77;;;13.97;;
32964;SDS011;19317;48.226;11.686;2024-03-08T04:30:30;19.90;;;14.40;;
32964;SDS011;19317;48.226;11.686;2024-03-08T04:35:21;23.33;;;16.13;;
32964;SDS011;19317;48.226;11.686;2024-03-08T04:40:12;19.23;;;14.37;;
32964;SDS011;19317;48.226;11.686;2024-03-08T04:45:03;19.87;;;15.67;;
32964;SDS011;19317;48.226;11.686;2024-03-08T04:49:54;21.80;;;14.77;;
32964;SDS011;19317;48.226;11.686;2024-03-08T04:54:45;24.83;;;15.93;;
32964;SDS011;19317;48.226;11.686;2024-03-08T04:59:36;24.93;;;17.00;;
32964;SDS011;19317;48.226;11.686;2024-03-08T05:04:27;24.73;;;17.07;;
32964;SDS011;19317;48.226;11.686;2024-03-08T05:09:18;26.80;;;17.47;;
32964;SDS011;19317;48.226;11.686;2024-03-08T05:14:08;22.77;;;17.17;;
32964;SDS011;19317;48.226;11.686;2024-03-08T05:18:59;27.93;;;17.50;;
32964;SDS011;19317;48.226;11.686;2024-03-08T05:23:50;29.20;;;19.23;;
32964;SDS011;19317;48.226;11.686;2024-03-08T05:28:41;28.67;;;18.47;;
32964;SDS011;19317;48.226;11.686;2024-03-08T05:33:32;29.27;;;18.57;;
32964;SDS011;19317;48.226;11.686;2024-03-08T05:38:23;29.30;;;20.03;;
32964;SDS011;19317;48.226;11.686;2024-03-08T05:43:14;31.53;;;19.73;;
32964;SDS011;19317;48.226;11.686;2024-03-08T05:48:05;33.33;;;20.10;;
32964;SDS011;19317;48.226;11.686;2024-03-08T05:52:56;34.67;;;19.83;;
32964;SDS011;19317;48.226;11.686;2024-03-08T05:57:47;32.33;;;20.57;;
32964;SDS011;19317;48.226;11.686;2024-03-08T06:02:38;29.77;;;20.17;;
32964;SDS011;19317;48.226;11.686;2024-03-08T06:07:29;35.63;;;19.50;;
32964;SDS011;19317;48.226;11.686;2024-03-08T06:12:20;33.93;;;20.90;;
32964;SDS011;19317;48.226;11.686;2024-03-08T06:17:10;34.97;;;22.63;;
32964;SDS011;19317;48.226;11.686;2024-03-08T06:22:01;32.77;;;20.20;;
32964;SDS011;19317;48.226;11.686;2024-03-08T06:26:52;36.10;;;21.73;;
32964;SDS011;19317;48.226;11.686;2024-03-08T06:31:43;38.20;;;22.53;;
32964;SDS011;19317;48.226;11.686;2024-03-08T06:36:35;38.10;;;22.83;;
32964;SDS011;19317;48.226;11.686;2024-03-08T06:41:26;37.50;;;22.77;;
32964;SDS011;19317;48.226;11.686;2024-03-08T06:46:17;38.53;;;23.57;;
32964;SDS011;19317;48.226;11.686;2024-03-08T06:51:08;34.43;;;21.67;;
32964;SDS011;19317;48.226;11.686;2024-03-08T06:55:59;37.80;;;22.57;;
32964;SDS011;19317;48.226;11.686;2024-03-08T07:00:50;34.60;;;22.50;;
32964;SDS011;19317;48.226;11.686;2024-03-08T07:05:40;35.17;;;22.83;;
32964;SDS011;19317;48.226;11.686;2024-03-08T07:10:31;38.63;;;23.93;;
32964;SDS011;19317;48.226;11.686;2024-03-08T07:15:22;35.87;;;22.43;;
32964;SDS011;19317;48.226;11.686;2024-03-08T07:20:13;36.10;;;23.00;;
32964;SDS011;19317;48.226;11.686;2024-03-08T07:25:05;35.23;;;22.00;;
32964;SDS011;19317;48.226;11.686;2024-03-08T07:29:56;36.90;;;24.07;;
32964;SDS011;19317;48.226;11.686;2024-03-08T07:34:47;35.37;;;21.67;;
32964;SDS011;19317;48.226;11.686;2024-03-08T07:39:38;32.33;;;20.57;;
32964;SDS011;19317;48.226;11.686;2024-03-08T07:44:29;36.90;;;22.20;;
32964;SDS011;19317;48.226;11.686;2024-03-08T07:49:20;33.30;;;20.87;;
32964;SDS011;19317;48.226;11.686;2024-03-08T07:54:11;32.93;;;22.30;;
32964;SDS011;19317;48.226;11.686;2024-03-08T07:59:02;33.47;;;19.60;;
32964;SDS011;19317;48.226;11.686;2024-03-08T08:03:53;31.23;;;21.20;;
32964;SDS011;19317;48.226;11.686;2024-03-08T08:08:44;31.27;;;21.03;;
32964;SDS011;19317;48.226;11.686;2024-03-08T08:13:35;29.77;;;19.17;;
32964;SDS011;19317;48.226;11.686;2024-03-08T08:18:26;32.47;;;20.33;;
32964;SDS011;19317;48.226;11.686;2024-03-08T08:23:17;31.30;;;20.83;;
32964;SDS011;19317;48.226;11.686;2024-03-08T08:28:08;34.17;;;21.27;;
32964;SDS011;19317;48.226;11.686;2024-03-08T08:32:59;27.87;;;19.33;;
32964;SDS011;19317;48.226;11.686;2024-03-08T08:37:49;29.90;;;20.03;;
32964;SDS011;19317;48.226;11.686;2024-03-08T08:42:40;32.90;;;21.23;;
32964;SDS011;19317;48.226;11.686;2024-03-08T08:47:31;30.07;;;19.40;;
32964;SDS011;19317;48.226;11.686;2024-03-08T08:52:22;28.93;;;19.53;;
32964;SDS011;19317;48.226;11.686;2024-03-08T09:02:06;27.40;;;19.57;;
32964;SDS011;19317;48.226;11.686;2024-03-08T09:06:57;26.13;;;18.60;;
32964;SDS011;19317;48.226;11.686;2024-03-08T09:11:48;25.97;;;17.60;;
32964;SDS011;19317;48.226;11.686;2024-03-08T09:16:39;26.73;;;19.07;;
32964;SDS011;19317;48.226;11.686;2024-03-08T09:21:30;25.90;;;18.70;;
32964;SDS011;19317;48.226;11.686;2024-03-08T09:26:21;25.33;;;18.47;;
32964;SDS011;19317;48.226;11.686;2024-03-08T09:31:12;26.33;;;18.43;;
32964;SDS011;19317;48.226;11.686;2024-03-08T09:36:03;25.17;;;17.90;;
32964;SDS011;19317;48.226;11.686;2024-03-08T09:40:54;27.00;;;18.67;;
32964;SDS011;19317;48.226;11.686;2024-03-08T09:45:45;25.23;;;17.97;;
32964;SDS011;19317;48.226;11.686;2024-03-08T09:50:36;23.20;;;16.93;;
32964;SDS011;19317;48.226;11.686;2024-03-08T09:55:27;23.23;;;17.33;;
32964;SDS011;19317;48.226;11.686;2024-03-08T10:00:18;22.83;;;16.67;;
32964;SDS011;19317;48.226;11.686;2024-03-08T10:05:09;21.43;;;16.20;;
32964;SDS011;19317;48.226;11.686;2024-03-08T10:09:59;26.00;;;19.40;;
32964;SDS011;19317;48.226;11.686;2024-03-08T10:14:50;25.30;;;18.40;;
32964;SDS011;19317;48.226;11.686;2024-03-08T10:19:49;23.17;;;17.23;;
32964;SDS011;19317;48.226;11.686;2024-03-08T10:24:40;25.50;;;17.20;;
32964;SDS011;19317;48.226;11.686;2024-03-08T10:29:31;20.63;;;15.63;;
32964;SDS011;19317;48.226;11.686;2024-03-08T10:34:22;21.30;;;15.23;;
32964;SDS011;19317;48.226;11.686;2024-03-08T10:39:23;20.63;;;16.03;;
32964;SDS011;19317;48.226;11.686;2024-03-08T10:44:18;19.73;;;15.50;;
32964;SDS011;19317;48.226;11.686;2024-03-08T10:49:12;18.33;;;14.50;;
32964;SDS011;19317;48.226;11.686;2024-03-08T10:54:06;22.30;;;16.60;;
32964;SDS011;19317;48.226;11.686;2024-03-08T10:58:57;19.70;;;14.63;;
32964;SDS011;19317;48.226;11.686;2024-03-08T11:03:48;17.93;;;13.63;;
32964;SDS011;19317;48.226;11.686;2024-03-08T11:08:39;22.57;;;16.50;;
32964;SDS011;19317;48.226;11.686;2024-03-08T11:13:42;23.30;;;16.70;;
32964;SDS011;19317;48.226;11.686;2024-03-08T11:18:33;23.13;;;16.73;;
32964;SDS011;19317;48.226;11.686;2024-03-08T11:23:24;25.73;;;19.13;;
32964;SDS011;19317;48.226;11.686;2024-03-08T11:28:18;22.20;;;16.47;;
32964;SDS011;19317;48.226;11.686;2024-03-08T11:33:13;24.90;;;18.03;;
32964;SDS011;19317;48.226;11.686;2024-03-08T11:38:04;23.20;;;17.93;;
32964;SDS011;19317;48.226;11.686;2024-03-08T11:42:55;22.77;;;17.17;;
32964;SDS011;19317;48.226;11.686;2024-03-08T11:47:45;22.30;;;16.70;;
32964;SDS011;19317;48.226;11.686;2024-03-08T11:52:36;22.57;;;17.27;;
32964;SDS011;19317;48.226;11.686;2024-03-08T11:57:27;24.33;;;17.63;;
32964;SDS011;19317;48.226;11.686;2024-03-08T12:02:18;21.00;;;17.33;;
32964;SDS011;19317;48.226;11.686;2024-03-08T12:07:09;21.07;;;16.50;;
32964;SDS011;19317;48.226;11.686;2024-03-08T12:12:00;20.50;;;16.30;;
32964;SDS011;19317;48.226;11.686;2024-03-08T12:16:51;20.33;;;16.80;;
32964;SDS011;19317;48.226;11.686;2024-03-08T12:21:42;19.33;;;15.13;;
32964;SDS011;19317;48.226;11.686;2024-03-08T12:26:33;16.80;;;12.90;;
32964;SDS011;19317;48.226;11.686;2024-03-08T12:31:24;18.63;;;15.33;;
32964;SDS011;19317;48.226;11.686;2024-03-08T12:36:16;18.37;;;14.90;;
32964;SDS011;19317;48.226;11.686;2024-03-08T12:41:08;18.23;;;15.60;;
32964;SDS011;19317;48.226;11.686;2024-03-08T12:45:59;20.20;;;15.73;;
32964;SDS011;19317;48.226;11.686;2024-03-08T12:50:50;19.43;;;15.53;;
32964;SDS011;19317;48.226;11.686;2024-03-08T12:55:41;17.97;;;15.43;;
32964;SDS011;19317;48.226;11.686;2024-03-08T13:00:32;18.70;;;14.53;;
32964;SDS011;19317;48.226;11.686;2024-03-08T13:05:22;16.70;;;14.10;;
32964;SDS011;19317;48.226;11.686;2024-03-08T13:10:13;16.23;;;14.17;;
32964;SDS011;19317;48.226;11.686;2024-03-08T13:15:04;17.17;;;14.03;;
32964;SDS011;19317;48.226;11.686;2024-03-08T13:19:55;17.10;;;13.97;;
32964;SDS011;19317;48.226;11.686;2024-03-08T13:24:46;15.13;;;12.67;;
32964;SDS011;19317;48.226;11.686;2024-03-08T13:29:37;15.37;;;13.77;;
32964;SDS011;19317;48.226;11.686;2024-03-08T13:34:28;16.60;;;13.83;;
32964;SDS011;19317;48.226;11.686;2024-03-08T13:39:19;16.57;;;12.70;;
32964;SDS011;19317;48.226;11.686;2024-03-08T13:44:10;14.67;;;12.07;;
32964;SDS011;19317;48.226;11.686;2024-03-08T13:53:53;15.37;;;12.17;;
32964;SDS011;19317;48.226;11.686;2024-03-08T13:58:44;13.20;;;11.80;;
32964;SDS011;19317;48.226;11.686;2024-03-08T14:03:35;12.83;;;11.43;;
32964;SDS011;19317;48.226;11.686;2024-03-08T14:08:26;14.87;;;12.27;;
32964;SDS011;19317;48.226;11.686;2024-03-08T14:13:17;14.57;;;12.00;;
32964;SDS011;19317;48.226;11.686;2024-03-08T14:18:08;13.60;;;10.97;;
32964;SDS011;19317;48.226;11.686;2024-03-08T14:22:58;14.43;;;11.43;;
32964;SDS011;19317;48.226;11.686;2024-03-08T14:27:50;13.10;;;11.37;;
32964;SDS011;19317;48.226;11.686;2024-03-08T14:32:41;12.83;;;10.70;;
32964;SDS011;19317;48.226;11.686;2024-03-08T14:37:32;13.93;;;10.97;;
32964;SDS011;19317;48.226;11.686;2024-03-08T14:42:23;15.33;;;11.30;;
32964;SDS011;19317;48.226;11.686;2024-03-08T14:47:14;12.53;;;10.00;;
32964;SDS011;19317;48.226;11.686;2024-03-08T14:52:05;12.10;;;10.57;;
32964;SDS011;19317;48.226;11.686;2024-03-08T14:56:56;12.10;;;10.00;;
32964;SDS011;19317;48.226;11.686;2024-03-08T15:01:47;11.47;;;10.27;;
32964;SDS011;19317;48.226;11.686;2024-03-08T15:06:38;13.00;;;10.50;;
32964;SDS011;19317;48.226;11.686;2024-03-08T15:11:29;12.73;;;11.20;;
32964;SDS011;19317;48.226;11.686;2024-03-08T15:16:20;13.73;;;10.23;;
32964;SDS011;19317;48.226;11.686;2024-03-08T15:21:11;11.53;;;9.50;;
32964;SDS011;19317;48.226;11.686;2024-03-08T15:26:02;12.47;;;11.17;;
32964;SDS011;19317;48.226;11.686;2024-03-08T15:30:53;12.10;;;10.77;;
32964;SDS011;19317;48.226;11.686;2024-03-08T15:35:44;12.70;;;10.47;;
32964;SDS011;19317;48.226;11.686;2024-03-08T15:40:34;12.07;;;10.77;;
32964;SDS011;19317;48.226;11.686;2024-03-08T15:45:25;12.83;;;11.20;;
32964;SDS011;19317;48.226;11.686;2024-03-08T15:50:16;14.73;;;10.93;;
32964;SDS011;19317;48.226;11.686;2024-03-08T15:55:07;15.77;;;10.63;;
32964;SDS011;19317;48.226;11.686;2024-03-08T15:59:58;12.80;;;11.47;;
32964;SDS011;19317;48.226;11.686;2024-03-08T16:04:49;12.17;;;10.87;;
32964;SDS011;19317;48.226;11.686;2024-03-08T16:09:40;15.13;;;12.00;;
32964;SDS011;19317;48.226;11.686;2024-03-08T16:14:36;15.40;;;11.83;;
32964;SDS011;19317;48.226;11.686;2024-03-08T16:19:27;12.73;;;11.20;;
32964;SDS011;19317;48.226;11.686;2024-03-08T16:24:17;13.37;;;11.10;;
32964;SDS011;19317;48.226;11.686;2024-03-08T16:29:08;12.40;;;10.80;;
32964;SDS011;19317;48.226;11.686;2024-03-08T16:33:59;13.10;;;11.57;;
32964;SDS011;19317;48.226;11.686;2024-03-08T16:38:50;13.13;;;10.93;;
32964;SDS011;19317;48.226;11.686;2024-03-08T16:43:41;12.37;;;11.07;;
32964;SDS011;19317;48.226;11.686;2024-03-08T16:48:32;15.17;;;10.93;;
32964;SDS011;19317;48.226;11.686;2024-03-08T16:53:23;12.93;;;10.90;;
32964;SDS011;19317;48.226;11.686;2024-03-08T16:58:13;13.80;;;11.10;;
32964;SDS011;19317;48.226;11.686;2024-03-08T17:03:04;14.50;;;11.53;;
32964;SDS011;19317;48.226;11.686;2024-03-08T17:07:56;13.23;;;10.93;;
32964;SDS011;19317;48.226;11.686;2024-03-08T17:12:47;13.00;;;11.30;;
32964;SDS011;19317;48.226;11.686;2024-03-08T17:17:39;13.77;;;11.10;;
32964;SDS011;19317;48.226;11.686;2024-03-08T17:22:30;13.70;;;11.47;;
32964;SDS011;19317;48.226;11.686;2024-03-08T17:27:20;13.97;;;11.87;;
32964;SDS011;19317;48.226;11.686;2024-03-08T17:32:11;14.63;;;11.60;;
32964;SDS011;19317;48.226;11.686;2024-03-08T17:37:02;13.77;;;11.70;;
32964;SDS011;19317;48.226;11.686;2024-03-08T17:41:53;15.13;;;11.80;;
32964;SDS011;19317;48.226;11.686;2024-03-08T17:46:44;15.00;;;11.53;;
32964;SDS011;19317;48.226;11.686;2024-03-08T17:51:36;15.67;;;12.17;;
32964;SDS011;19317;48.226;11.686;2024-03-08T17:56:26;14.67;;;11.07;;
32964;SDS011;19317;48.226;11.686;2024-03-08T18:01:17;13.83;;;11.77;;
32964;SDS011;19317;48.226;11.686;2024-03-08T18:06:08;15.87;;;11.70;;
32964;SDS011;19317;48.226;11.686;2024-03-08T18:10:59;14.37;;;12.20;;
32964;SDS011;19317;48.226;11.686;2024-03-08T18:15:50;14.13;;;12.00;;
32964;SDS011;19317;48.226;11.686;2024-03-08T18:20:41;15.17;;;11.90;;
32964;SDS011;19317;48.226;11.686;2024-03-08T18:25:32;13.53;;;11.27;;
32964;SDS011;19317;48.226;11.686;2024-03-08T18:30:23;13.83;;;11.63;;
32964;SDS011;19317;48.226;11.686;2024-03-08T18:35:14;13.40;;;11.27;;
32964;SDS011;19317;48.226;11.686;2024-03-08T18:40:06;15.10;;;11.43;;
32964;SDS011;19317;48.226;11.686;2024-03-08T18:44:57;13.43;;;11.37;;
32964;SDS011;19317;48.226;11.686;2024-03-08T18:49:48;14.77;;;11.03;;
32964;SDS011;19317;48.226;11.686;2024-03-08T18:54:39;17.67;;;11.73;;
32964;SDS011;19317;48.226;11.686;2024-03-08T18:59:29;16.10;;;11.30;;
32964;SDS011;19317;48.226;11.686;2024-03-08T19:04:20;13.63;;;11.43;;
32964;SDS011;19317;48.226;11.686;2024-03-08T19:09:11;13.20;;;11.00;;
32964;SDS011;19317;48.226;11.686;2024-03-08T19:14:02;12.87;;;10.60;;
32964;SDS011;19317;48.226;11.686;2024-03-08T19:18:53;12.70;;;10.20;;
32964;SDS011;19317;48.226;11.686;2024-03-08T19:23:44;13.47;;;10.10;;
32964;SDS011;19317;48.226;11.686;2024-03-08T19:28:35;11.93;;;10.40;;
32964;SDS011;19317;48.226;11.686;2024-03-08T19:33:25;11.83;;;10.23;;
32964;SDS011;19317;48.226;11.686;2024-03-08T19:38:16;13.73;;;10.33;;
32964;SDS011;19317;48.226;11.686;2024-03-08T19:43:07;12.20;;;9.90;;
32964;SDS011;19317;48.226;11.686;2024-03-08T19:47:59;10.60;;;9.43;;
32964;SDS011;19317;48.226;11.686;2024-03-08T19:52:51;13.30;;;10.33;;
32964;SDS011;19317;48.226;11.686;2024-03-08T19:57:42;10.73;;;9.57;;
32964;SDS011;19317;48.226;11.686;2024-03-08T20:02:33;12.47;;;9.33;;
32964;SDS011;19317;48.226;11.686;2024-03-08T20:07:24;10.93;;;9.43;;
32964;SDS011;19317;48.226;11.686;2024-03-08T20:12:15;11.37;;;9.43;;
32964;SDS011;19317;48.226;11.686;2024-03-08T20:17:05;10.70;;;9.17;;
32964;SDS011;19317;48.226;11.686;2024-03-08T20:21:56;10.23;;;8.70;;
32964;SDS011;19317;48.226;11.686;2024-03-08T20:26:47;9.60;;;8.60;;
32964;SDS011;19317;48.226;11.686;2024-03-08T20:31:38;10.10;;;8.70;;
32964;SDS011;19317;48.226;11.686;2024-03-08T20:36:29;10.93;;;8.70;;
32964;SDS011;19317;48.226;11.686;2024-03-08T20:41:20;10.13;;;8.63;;
32964;SDS011;19317;48.226;11.686;2024-03-08T20:46:11;12.87;;;8.77;;
32964;SDS011;19317;48.226;11.686;2024-03-08T20:51:02;10.60;;;8.63;;
32964;SDS011;19317;48.226;11.686;2024-03-08T20:55:53;12.47;;;9.03;;
32964;SDS011;19317;48.226;11.686;2024-03-08T21:00:44;10.83;;;9.00;;
32964;SDS011;19317;48.226;11.686;2024-03-08T21:05:35;10.23;;;8.53;;
32964;SDS011;19317;48.226;11.686;2024-03-08T21:10:27;11.30;;;9.37;;
32964;SDS011;19317;48.226;11.686;2024-03-08T21:15:17;12.20;;;8.70;;
32964;SDS011;19317;48.226;11.686;2024-03-08T21:20:08;10.33;;;8.43;;
32964;SDS011;19317;48.226;11.686;2024-03-08T21:24:59;9.60;;;8.60;;
32964;SDS011;19317;48.226;11.686;2024-03-08T21:29:50;10.47;;;8.83;;
32964;SDS011;19317;48.226;11.686;2024-03-08T21:34:41;9.67;;;8.23;;
32964;SDS011;19317;48.226;11.686;2024-03-08T21:39:32;10.80;;;8.77;;
32964;SDS011;19317;48.226;11.686;2024-03-08T21:44:23;9.60;;;7.93;;
32964;SDS011;19317;48.226;11.686;2024-03-08T21:49:14;10.47;;;8.23;;
32964;SDS011;19317;48.226;11.686;2024-03-08T21:54:05;11.30;;;8.57;;
32964;SDS011;19317;48.226;11.686;2024-03-08T21:58:56;10.43;;;8.37;;
32964;SDS011;19317;48.226;11.686;2024-03-08T22:03:47;11.03;;;9.00;;
32964;SDS011;19317;48.226;11.686;2024-03-08T22:08:38;11.10;;;9.27;;
32964;SDS011;19317;48.226;11.686;2024-03-08T22:13:29;11.70;;;9.60;;
32964;SDS011;19317;48.226;11.686;2024-03-08T22:18:20;9.43;;;8.43;;
32964;SDS011;19317;48.226;11.686;2024-03-08T22:23:10;9.70;;;8.30;;
32964;SDS011;19317;48.226;11.686;2024-03-08T22:28:01;10.83;;;8.90;;
32964;SDS011;19317;48.226;11.686;2024-03-08T22:32:52;13.43;;;9.07;;
32964;SDS011;19317;48.226;11.686;2024-03-08T22:37:43;10.17;;;8.57;;
32964;SDS011;19317;48.226;11.686;2024-03-08T22:42:34;10.17;;;8.37;;
32964;SDS011;19317;48.226;11.686;2024-03-08T22:47:25;9.80;;;7.97;;
32964;SDS011;19317;48.226;11.686;2024-03-08T22:52:16;9.57;;;7.77;;
32964;SDS011;19317;48.226;11.686;2024-03-08T22:57:07;9.60;;;8.13;;
32964;SDS011;19317;48.226;11.686;2024-03-08T23:01:58;9.87;;;7.83;;
32964;SDS011;19317;48.226;11.686;2024-03-08T23:06:48;10.30;;;8.10;;
32964;SDS011;19317;48.226;11.686;2024-03-08T23:11:39;9.77;;;8.67;;
32964;SDS011;19317;48.226;11.686;2024-03-08T23:16:30;11.20;;;8.30;;
32964;SDS011;19317;48.226;11.686;2024-03-08T23:21:21;8.67;;;7.77;;
32964;SDS011;19317;48.226;11.686;2024-03-08T23:26:12;8.90;;;7.83;;
32964;SDS011;19317;48.226;11.686;2024-03-08T23:31:03;8.73;;;7.83;;
32964;SDS011;19317;48.226;11.686;2024-03-08T23:35:54;8.53;;;7.37;;
32964;SDS011;19317;48.226;11.686;2024-03-08T23:40:45;8.50;;;7.43;;
32964;SDS011;19317;48.226;11.686;2024-03-08T23:45:36;9.37;;;7.70;;
32964;SDS011;19317;48.226;11.686;2024-03-08T23:50:27;10.10;;;8.57;;
32964;SDS011;19317;48.226;11.686;2024-03-08T23:55:19;9.63;;;8.00;;
